createdAt,value
2022-11-13T00:00:13.403Z,13.19
2022-11-13T00:01:38.865Z,13.09
2022-11-13T00:02:13.008Z,13.15
2022-11-13T00:02:53.912Z,13.18
2022-11-13T00:03:35.958Z,13.15
2022-11-13T00:04:16.852Z,13.14
2022-11-13T00:04:56.893Z,13.17
2022-11-13T00:05:36.865Z,13.14
2022-11-13T00:06:18.916Z,13.18
2022-11-13T00:06:59.580Z,13.22
2022-11-13T00:07:39.876Z,13.22
2022-11-13T00:08:19.850Z,13.15
2022-11-13T00:09:00.930Z,13.22
2022-11-13T00:09:40.849Z,13.22
2022-11-13T00:10:21.888Z,13.27
2022-11-13T00:11:24.862Z,13.16
2022-11-13T00:12:04.897Z,13.27
2022-11-13T00:12:44.840Z,13.12
2022-11-13T00:13:32.860Z,13.23
2022-11-13T00:14:06.516Z,13.27
2022-11-13T00:14:53.849Z,13.26
2022-11-13T00:15:27.666Z,13.29
2022-11-13T00:16:18.849Z,13.29
2022-11-13T00:16:52.601Z,13.26
2022-11-13T00:17:41.869Z,13.33
2022-11-13T00:18:15.554Z,13.35
2022-11-13T00:18:56.843Z,13.28
2022-11-13T00:19:30.931Z,13.29
2022-11-13T00:20:05.511Z,13.31
2022-11-13T00:20:45.837Z,13.26
2022-11-13T00:21:27.169Z,13.31
2022-11-13T00:22:00.619Z,13.29
2022-11-13T00:22:40.840Z,13.28
2022-11-13T00:23:14.880Z,13.33
2022-11-13T00:23:49.027Z,13.23
2022-11-13T00:24:29.871Z,13.31
2022-11-13T00:25:03.872Z,13.39
2022-11-13T00:25:37.499Z,13.36
2022-11-13T00:26:26.832Z,13.36
2022-11-13T00:27:00.916Z,13.38
2022-11-13T00:27:34.803Z,13.40
2022-11-13T00:28:14.867Z,13.36
2022-11-13T00:28:48.892Z,13.34
2022-11-13T00:29:22.542Z,13.34
2022-11-13T00:30:03.850Z,13.36
2022-11-13T00:30:37.926Z,13.38
2022-11-13T00:31:14.207Z,13.40
2022-11-13T00:31:53.820Z,13.36
2022-11-13T00:32:27.860Z,13.39
2022-11-13T00:33:01.549Z,13.39
2022-11-13T00:34:09.040Z,13.37
2022-11-13T00:34:52.300Z,13.47
2022-11-13T00:35:32.861Z,13.46
2022-11-13T00:36:29.949Z,13.49
2022-11-13T00:37:09.844Z,13.49
2022-11-13T00:37:49.862Z,13.51
2022-11-13T00:38:30.029Z,13.50
2022-11-13T00:39:10.888Z,13.49
2022-11-13T00:39:53.417Z,13.53
2022-11-13T00:40:44.837Z,13.54
2022-11-13T00:41:18.517Z,13.55
2022-11-13T00:42:05.832Z,13.52
2022-11-13T00:42:39.549Z,13.50
2022-11-13T00:43:26.819Z,13.54
2022-11-13T00:44:00.487Z,13.50
2022-11-13T00:44:47.801Z,13.55
2022-11-13T00:45:21.538Z,13.55
2022-11-13T00:46:09.842Z,13.54
2022-11-13T00:46:43.496Z,13.55
2022-11-13T00:47:30.854Z,13.56
2022-11-13T00:48:04.658Z,13.50
2022-11-13T00:48:52.839Z,13.53
2022-11-13T00:49:26.495Z,13.53
2022-11-13T00:50:13.832Z,13.52
2022-11-13T00:50:47.937Z,13.53
2022-11-13T00:51:35.882Z,13.54
2022-11-13T00:52:09.580Z,13.55
2022-11-13T00:52:56.815Z,13.51
2022-11-13T00:53:30.552Z,13.51
2022-11-13T00:54:17.819Z,13.48
2022-11-13T00:54:51.523Z,13.51
2022-11-13T00:55:38.808Z,13.48
2022-11-13T00:56:12.466Z,13.45
2022-11-13T00:57:00.827Z,13.55
2022-11-13T00:57:34.685Z,13.53
2022-11-13T00:58:21.794Z,13.54
2022-11-13T00:58:55.509Z,13.47
2022-11-13T00:59:42.820Z,13.51
2022-11-13T01:00:16.935Z,13.52
2022-11-13T01:01:03.805Z,13.53
2022-11-13T01:01:37.521Z,13.47
2022-11-13T01:02:25.863Z,13.48
2022-11-13T01:03:00.031Z,13.47
2022-11-13T01:03:47.818Z,13.42
2022-11-13T01:04:21.807Z,13.45
2022-11-13T01:05:08.836Z,13.46
2022-11-13T01:05:44.764Z,13.32
2022-11-13T01:06:35.914Z,13.37
2022-11-13T01:07:09.576Z,13.39
2022-11-13T01:07:50.813Z,13.40
2022-11-13T01:08:25.009Z,13.39
2022-11-13T01:09:02.383Z,13.45
2022-11-13T01:09:43.777Z,13.46
2022-11-13T01:10:17.826Z,13.44
2022-11-13T01:10:53.745Z,13.42
2022-11-13T01:11:36.773Z,13.45
2022-11-13T01:12:16.920Z,13.37
2022-11-13T01:12:57.814Z,13.44
2022-11-13T01:13:37.809Z,13.43
2022-11-13T01:14:17.807Z,13.43
2022-11-13T01:14:57.931Z,13.45
2022-11-13T01:15:37.801Z,13.47
2022-11-13T01:16:19.827Z,13.43
2022-11-13T01:16:59.792Z,13.39
2022-11-13T01:17:39.805Z,13.35
2022-11-13T01:18:20.815Z,13.39
2022-11-13T01:19:01.900Z,13.40
2022-11-13T01:19:41.777Z,13.39
2022-11-13T01:20:22.820Z,13.30
2022-11-13T01:21:16.803Z,13.32
2022-11-13T01:21:56.828Z,13.36
2022-11-13T01:22:36.777Z,13.38
2022-11-13T01:23:17.827Z,13.41
2022-11-13T01:23:58.790Z,13.33
2022-11-13T01:24:38.795Z,13.41
2022-11-13T01:25:18.769Z,13.35
2022-11-13T01:25:58.795Z,13.41
2022-11-13T01:26:38.752Z,13.27
2022-11-13T01:27:18.826Z,13.35
2022-11-13T01:27:58.797Z,13.33
2022-11-13T01:28:39.852Z,13.36
2022-11-13T01:29:19.789Z,13.28
2022-11-13T01:30:00.802Z,13.32
2022-11-13T01:30:41.771Z,13.28
2022-11-13T01:31:25.927Z,13.32
2022-11-13T01:32:05.751Z,13.36
2022-11-13T01:32:45.818Z,13.31
2022-11-13T01:33:25.783Z,13.22
2022-11-13T01:34:06.806Z,13.34
2022-11-13T01:34:46.794Z,13.31
2022-11-13T01:35:26.800Z,13.33
2022-11-13T01:36:16.769Z,13.31
2022-11-13T01:36:56.816Z,13.28
2022-11-13T01:37:36.780Z,13.29
2022-11-13T01:38:16.775Z,13.16
2022-11-13T01:38:57.758Z,13.21
2022-11-13T01:39:38.807Z,13.26
2022-11-13T01:40:20.809Z,13.27
2022-11-13T01:41:00.904Z,13.21
2022-11-13T01:41:41.760Z,13.25
2022-11-13T01:42:21.819Z,13.25
2022-11-13T01:43:01.754Z,13.24
2022-11-13T01:43:44.802Z,13.19
2022-11-13T01:44:25.747Z,13.19
2022-11-13T01:45:07.797Z,13.19
2022-11-13T01:46:05.765Z,13.19
2022-11-13T01:46:58.850Z,13.16
2022-11-13T01:47:38.752Z,13.12
2022-11-13T01:48:19.813Z,13.07
2022-11-13T01:49:45.760Z,13.10
2022-11-13T01:50:26.784Z,13.10
2022-11-13T01:51:06.774Z,13.09
2022-11-13T01:51:53.760Z,13.12
2022-11-13T01:52:40.763Z,13.06
2022-11-13T01:53:20.809Z,13.17
2022-11-13T01:54:01.761Z,13.06
2022-11-13T01:54:47.787Z,13.13
2022-11-13T01:55:27.759Z,13.13
2022-11-13T01:56:15.806Z,13.13
2022-11-13T01:56:49.593Z,13.06
2022-11-13T01:57:37.736Z,13.10
2022-11-13T01:58:12.191Z,13.08
2022-11-13T01:59:07.735Z,12.99
2022-11-13T01:59:50.308Z,13.08
2022-11-13T02:00:36.755Z,13.03
2022-11-13T02:01:10.460Z,13.06
2022-11-13T02:01:51.826Z,13.01
2022-11-13T02:02:25.791Z,12.99
2022-11-13T02:02:59.524Z,13.05
2022-11-13T02:03:40.740Z,13.08
2022-11-13T02:04:14.787Z,13.01
2022-11-13T02:04:48.479Z,13.02
2022-11-13T02:05:28.724Z,12.99
2022-11-13T02:06:02.804Z,12.95
2022-11-13T02:06:51.552Z,12.95
2022-11-13T02:07:32.774Z,12.88
2022-11-13T02:08:06.799Z,12.82
2022-11-13T02:08:40.448Z,12.79
2022-11-13T02:09:24.731Z,12.82
2022-11-13T02:10:02.768Z,12.81
2022-11-13T02:10:36.432Z,12.73
2022-11-13T02:11:17.714Z,12.67
2022-11-13T02:11:52.751Z,12.71
2022-11-13T02:12:42.770Z,12.73
2022-11-13T02:13:22.778Z,12.73
2022-11-13T02:14:02.733Z,12.69
2022-11-13T02:14:46.773Z,12.74
2022-11-13T02:15:32.734Z,12.70
2022-11-13T02:16:14.780Z,12.76
2022-11-13T02:16:55.721Z,12.68
2022-11-13T02:17:58.734Z,12.73
2022-11-13T02:18:32.864Z,12.72
2022-11-13T02:19:28.730Z,12.65
2022-11-13T02:20:04.917Z,12.67
2022-11-13T02:21:07.735Z,12.70
2022-11-13T02:21:59.060Z,12.71
2022-11-13T02:22:48.726Z,12.66
2022-11-13T02:23:50.752Z,12.69
2022-11-13T02:24:45.549Z,12.68
2022-11-13T02:25:26.756Z,12.73
2022-11-13T02:26:07.861Z,12.63
2022-11-13T02:26:48.736Z,12.70
2022-11-13T02:27:46.841Z,12.70
2022-11-13T02:28:28.014Z,12.67
2022-11-13T02:29:14.731Z,12.68
2022-11-13T02:29:48.435Z,12.64
2022-11-13T02:30:40.717Z,12.66
2022-11-13T02:31:14.956Z,12.66
2022-11-13T02:32:01.734Z,12.66
2022-11-13T02:32:35.408Z,12.67
2022-11-13T02:33:43.726Z,12.61
2022-11-13T02:34:23.727Z,12.65
2022-11-13T02:35:03.759Z,12.69
2022-11-13T02:35:44.705Z,12.62
2022-11-13T02:36:28.903Z,12.68
2022-11-13T02:37:15.708Z,12.64
2022-11-13T02:37:49.747Z,12.66
2022-11-13T02:38:37.722Z,12.62
2022-11-13T02:39:16.865Z,12.61
2022-11-13T02:39:57.716Z,12.59
2022-11-13T02:40:39.785Z,12.60
2022-11-13T02:41:19.701Z,12.63
2022-11-13T02:41:59.768Z,12.55
2022-11-13T02:42:39.697Z,12.54
2022-11-13T02:43:19.739Z,12.60
2022-11-13T02:43:59.693Z,12.53
2022-11-13T02:44:39.753Z,12.57
2022-11-13T02:45:20.741Z,12.54
2022-11-13T02:46:00.753Z,12.57
2022-11-13T02:46:42.699Z,12.55
2022-11-13T02:47:22.748Z,12.53
2022-11-13T02:48:03.740Z,12.59
2022-11-13T02:48:43.736Z,12.52
2022-11-13T02:49:23.739Z,12.46
2022-11-13T02:50:03.773Z,12.56
2022-11-13T02:50:44.700Z,12.51
2022-11-13T02:51:24.752Z,12.47
2022-11-13T02:52:04.755Z,12.52
2022-11-13T02:52:44.828Z,12.48
2022-11-13T02:53:25.695Z,12.40
2022-11-13T02:54:05.747Z,12.38
2022-11-13T02:54:45.679Z,12.37
2022-11-13T02:55:25.811Z,12.30
2022-11-13T02:56:06.700Z,12.24
2022-11-13T02:56:46.759Z,12.30
2022-11-13T02:57:26.683Z,12.23
2022-11-13T02:58:06.747Z,12.22
2022-11-13T02:58:46.688Z,12.27
2022-11-13T02:59:26.732Z,12.30
2022-11-13T03:00:10.694Z,12.23
2022-11-13T03:00:53.738Z,12.25
2022-11-13T03:01:34.807Z,12.21
2022-11-13T03:02:14.732Z,12.30
2022-11-13T03:02:55.685Z,12.31
2022-11-13T03:05:05.395Z,12.24
2022-11-13T03:05:35.729Z,12.28
2022-11-13T03:06:15.689Z,12.28
2022-11-13T03:06:55.861Z,12.30
2022-11-13T03:07:29.753Z,12.17
2022-11-13T03:08:16.672Z,12.25
2022-11-13T03:08:50.761Z,12.22
2022-11-13T03:09:37.668Z,12.22
2022-11-13T03:10:12.757Z,12.20
2022-11-13T03:11:00.679Z,12.21
2022-11-13T03:11:34.757Z,12.20
2022-11-13T03:12:16.699Z,12.13
2022-11-13T03:12:56.718Z,12.19
2022-11-13T03:13:36.675Z,12.18
2022-11-13T03:14:16.737Z,12.11
2022-11-13T03:14:56.664Z,12.12
2022-11-13T03:15:36.729Z,12.10
2022-11-13T03:16:20.672Z,12.12
2022-11-13T03:17:00.703Z,12.11
2022-11-13T03:17:41.712Z,12.14
2022-11-13T03:18:21.787Z,12.15
2022-11-13T03:19:03.672Z,12.05
2022-11-13T03:19:43.754Z,12.12
2022-11-13T03:20:24.656Z,12.12
2022-11-13T03:21:04.715Z,12.09
2022-11-13T03:21:44.659Z,12.06
2022-11-13T03:22:24.913Z,12.01
2022-11-13T03:23:05.662Z,12.00
2022-11-13T03:23:46.832Z,12.00
2022-11-13T03:24:27.726Z,12.06
2022-11-13T03:25:10.695Z,12.00
2022-11-13T03:25:50.669Z,12.05
2022-11-13T03:26:30.752Z,12.10
2022-11-13T03:27:10.663Z,12.12
2022-11-13T03:27:50.697Z,12.10
2022-11-13T03:28:31.660Z,12.06
2022-11-13T03:29:11.695Z,12.11
2022-11-13T03:29:51.642Z,12.11
2022-11-13T03:30:31.730Z,12.17
2022-11-13T03:31:12.660Z,12.19
2022-11-13T03:31:52.713Z,12.14
2022-11-13T03:32:32.668Z,12.19
2022-11-13T03:33:12.696Z,12.22
2022-11-13T03:33:53.731Z,12.20
2022-11-13T03:34:33.734Z,12.20
2022-11-13T03:35:15.642Z,12.23
2022-11-13T03:35:55.752Z,12.25
2022-11-13T03:36:35.643Z,12.23
2022-11-13T03:37:15.695Z,12.26
2022-11-13T03:37:56.655Z,12.30
2022-11-13T03:38:36.716Z,12.25
2022-11-13T03:39:17.676Z,12.16
2022-11-13T03:39:57.696Z,12.21
2022-11-13T03:40:37.678Z,12.23
2022-11-13T03:41:17.801Z,12.25
2022-11-13T03:41:57.639Z,12.21
2022-11-13T03:42:37.680Z,12.27
2022-11-13T03:43:17.630Z,12.28
2022-11-13T03:43:57.744Z,12.27
2022-11-13T03:44:38.660Z,12.25
2022-11-13T03:45:18.705Z,12.32
2022-11-13T03:45:58.674Z,12.35
2022-11-13T03:46:38.688Z,12.30
2022-11-13T03:47:18.648Z,12.32
2022-11-13T03:47:58.701Z,12.31
2022-11-13T03:48:38.628Z,12.39
2022-11-13T03:49:18.707Z,12.32
2022-11-13T03:49:59.660Z,12.27
2022-11-13T03:50:45.238Z,12.29
2022-11-13T03:51:25.661Z,12.14
2022-11-13T03:52:05.679Z,12.25
2022-11-13T03:52:45.628Z,12.22
2022-11-13T03:53:25.693Z,12.20
2022-11-13T03:54:06.625Z,12.25
2022-11-13T03:54:46.673Z,12.24
2022-11-13T03:55:27.651Z,12.23
2022-11-13T03:56:07.668Z,12.27
2022-11-13T03:56:47.643Z,12.30
2022-11-13T03:57:27.731Z,12.30
2022-11-13T03:58:07.644Z,12.30
2022-11-13T03:58:49.702Z,12.31
2022-11-13T03:59:29.624Z,12.31
2022-11-13T04:00:14.659Z,12.32
2022-11-13T04:00:55.653Z,12.30
2022-11-13T04:01:35.704Z,12.28
2022-11-13T04:02:15.627Z,12.33
2022-11-13T04:02:55.676Z,12.27
2022-11-13T04:03:35.644Z,12.30
2022-11-13T04:04:15.778Z,12.29
2022-11-13T04:04:55.642Z,12.29
2022-11-13T04:05:35.669Z,12.30
2022-11-13T04:06:16.656Z,12.28
2022-11-13T04:06:56.695Z,12.26
2022-11-13T04:07:36.611Z,12.23
2022-11-13T04:08:16.696Z,12.21
2022-11-13T04:08:56.605Z,12.26
2022-11-13T04:09:36.663Z,12.27
2022-11-13T04:10:16.614Z,12.30
2022-11-13T04:10:56.679Z,12.34
2022-11-13T04:11:37.644Z,12.28
2022-11-13T04:12:17.656Z,12.28
2022-11-13T04:12:57.610Z,12.30
2022-11-13T04:13:37.684Z,12.22
2022-11-13T04:14:17.598Z,12.30
2022-11-13T04:14:57.738Z,12.27
2022-11-13T04:15:37.596Z,12.28
2022-11-13T04:16:17.677Z,12.22
2022-11-13T04:16:58.649Z,12.18
2022-11-13T04:17:38.674Z,12.24
2022-11-13T04:18:18.619Z,12.22
2022-11-13T04:18:58.675Z,12.23
2022-11-13T04:19:38.599Z,12.17
2022-11-13T04:20:18.631Z,11.91
2022-11-13T04:20:58.611Z,12.13
2022-11-13T04:21:38.636Z,12.19
2022-11-13T04:22:19.625Z,12.22
2022-11-13T04:23:00.665Z,12.23
2022-11-13T04:23:40.611Z,12.10
2022-11-13T04:24:20.674Z,12.22
2022-11-13T04:25:00.608Z,12.19
2022-11-13T04:25:40.672Z,12.18
2022-11-13T04:26:20.595Z,12.11
2022-11-13T04:27:01.638Z,12.16
2022-11-13T04:27:42.607Z,12.03
2022-11-13T04:28:22.656Z,12.15
2022-11-13T04:29:02.627Z,12.14
2022-11-13T04:29:42.646Z,12.13
2022-11-13T04:30:22.608Z,12.13
2022-11-13T04:31:02.683Z,12.15
2022-11-13T04:31:42.584Z,12.16
2022-11-13T04:32:22.640Z,12.12
2022-11-13T04:33:03.607Z,12.14
2022-11-13T04:33:43.630Z,12.10
2022-11-13T04:34:23.586Z,12.00
2022-11-13T04:35:03.614Z,12.02
2022-11-13T04:35:44.599Z,12.01
2022-11-13T04:36:24.649Z,12.02
2022-11-13T04:37:04.609Z,12.08
2022-11-13T04:37:44.665Z,12.10
2022-11-13T04:38:25.764Z,12.07
2022-11-13T04:39:05.617Z,12.08
2022-11-13T04:39:45.613Z,12.11
2022-11-13T04:40:25.695Z,12.11
2022-11-13T04:41:24.595Z,12.09
2022-11-13T04:42:23.361Z,12.07
2022-11-13T04:43:03.601Z,12.00
2022-11-13T04:43:44.621Z,11.99
2022-11-13T04:44:18.632Z,12.03
2022-11-13T04:45:05.586Z,12.04
2022-11-13T04:45:39.621Z,12.01
2022-11-13T04:46:26.573Z,11.99
2022-11-13T04:47:00.600Z,11.96
2022-11-13T04:47:47.571Z,12.07
2022-11-13T04:48:21.617Z,11.91
2022-11-13T04:49:08.619Z,12.09
2022-11-13T04:49:42.650Z,11.99
2022-11-13T04:50:29.581Z,12.05
2022-11-13T04:51:03.659Z,12.04
2022-11-13T04:51:50.567Z,12.02
2022-11-13T04:52:24.620Z,11.90
2022-11-13T04:53:11.585Z,11.95
2022-11-13T04:53:45.615Z,11.85
2022-11-13T04:54:32.584Z,11.98
2022-11-13T04:55:06.646Z,11.97
2022-11-13T04:55:53.585Z,12.03
2022-11-13T04:56:27.633Z,12.01
2022-11-13T04:57:14.594Z,12.01
2022-11-13T04:57:51.467Z,12.01
2022-11-13T04:58:38.591Z,11.94
2022-11-13T04:59:12.639Z,11.94
2022-11-13T04:59:53.583Z,11.93
2022-11-13T05:00:33.615Z,12.01
2022-11-13T05:01:13.553Z,12.01
2022-11-13T05:01:55.535Z,11.97
2022-11-13T05:02:35.576Z,12.00
2022-11-13T05:03:15.636Z,11.92
2022-11-13T05:03:55.588Z,11.94
2022-11-13T05:04:35.614Z,11.96
2022-11-13T05:05:16.590Z,11.95
2022-11-13T05:05:56.669Z,12.02
2022-11-13T05:06:36.612Z,11.96
2022-11-13T05:07:16.637Z,11.92
2022-11-13T05:07:56.556Z,11.95
2022-11-13T05:08:36.640Z,11.98
2022-11-13T05:09:17.570Z,11.99
2022-11-13T05:09:57.607Z,11.90
2022-11-13T05:10:38.620Z,11.95
2022-11-13T05:11:18.694Z,11.91
2022-11-13T05:11:58.546Z,11.84
2022-11-13T05:12:38.625Z,12.01
2022-11-13T05:13:18.546Z,11.98
2022-11-13T05:14:03.204Z,11.93
2022-11-13T05:14:45.573Z,11.96
2022-11-13T05:15:26.590Z,12.01
2022-11-13T05:16:13.571Z,12.00
2022-11-13T05:16:53.630Z,12.00
2022-11-13T05:17:33.556Z,12.02
2022-11-13T05:18:13.604Z,12.03
2022-11-13T05:18:54.545Z,11.99
2022-11-13T05:19:34.650Z,11.94
2022-11-13T05:20:15.540Z,11.97
2022-11-13T05:20:55.632Z,11.91
2022-11-13T05:21:36.580Z,11.90
2022-11-13T05:22:16.609Z,11.96
2022-11-13T05:22:56.558Z,11.98
2022-11-13T05:23:36.663Z,11.92
2022-11-13T05:24:18.544Z,11.96
2022-11-13T05:24:58.622Z,11.99
2022-11-13T05:25:38.542Z,11.93
2022-11-13T05:26:20.572Z,11.92
2022-11-13T05:27:01.547Z,12.00
2022-11-13T05:27:41.588Z,11.99
2022-11-13T05:28:21.573Z,11.89
2022-11-13T05:29:05.713Z,11.90
2022-11-13T05:29:46.552Z,11.87
2022-11-13T05:30:26.603Z,11.92
2022-11-13T05:31:33.539Z,11.89
2022-11-13T05:32:20.568Z,11.83
2022-11-13T05:33:14.533Z,11.77
2022-11-13T05:34:08.605Z,11.74
2022-11-13T05:35:02.549Z,11.76
2022-11-13T05:35:56.546Z,11.76
2022-11-13T05:36:50.547Z,11.79
2022-11-13T05:37:37.565Z,11.79
2022-11-13T05:38:11.573Z,11.74
2022-11-13T05:38:59.536Z,11.78
2022-11-13T05:39:33.594Z,11.78
2022-11-13T05:40:20.511Z,11.78
2022-11-13T05:40:54.638Z,11.77
2022-11-13T05:41:41.552Z,11.80
2022-11-13T05:42:15.595Z,11.76
2022-11-13T05:43:03.561Z,11.78
2022-11-13T05:43:37.574Z,11.79
2022-11-13T05:44:24.525Z,11.77
2022-11-13T05:44:58.576Z,11.74
2022-11-13T05:45:45.512Z,11.63
2022-11-13T05:46:28.634Z,11.61
2022-11-13T05:47:15.545Z,11.56
2022-11-13T05:47:50.355Z,11.50
2022-11-13T05:48:31.846Z,11.43
2022-11-13T05:49:12.567Z,11.46
2022-11-13T05:49:52.531Z,11.48
2022-11-13T05:50:32.649Z,11.31
2022-11-13T05:51:17.544Z,11.42
2022-11-13T05:51:57.578Z,11.41
2022-11-13T05:52:38.516Z,11.48
2022-11-13T05:53:18.565Z,11.46
2022-11-13T05:54:00.552Z,11.51
2022-11-13T05:54:40.562Z,11.50
2022-11-13T05:55:23.374Z,11.50
2022-11-13T05:56:21.601Z,11.50
2022-11-13T05:57:01.503Z,11.53
2022-11-13T05:57:41.571Z,11.51
2022-11-13T05:58:21.500Z,11.37
2022-11-13T05:59:09.538Z,11.45
2022-11-13T06:00:03.514Z,11.55
2022-11-13T06:00:57.529Z,11.55
2022-11-13T06:01:53.577Z,11.53
2022-11-13T06:02:48.527Z,11.53
2022-11-13T06:03:42.524Z,11.52
2022-11-13T06:04:29.534Z,11.48
2022-11-13T06:05:03.560Z,11.53
2022-11-13T06:05:50.484Z,11.51
2022-11-13T06:06:27.552Z,11.54
2022-11-13T06:07:14.591Z,11.49
2022-11-13T06:07:48.561Z,11.55
2022-11-13T06:08:36.523Z,11.55
2022-11-13T06:09:13.006Z,11.55
2022-11-13T06:09:52.516Z,11.53
2022-11-13T06:10:32.560Z,11.52
2022-11-13T06:11:16.532Z,11.51
2022-11-13T06:11:56.571Z,11.55
2022-11-13T06:12:37.516Z,11.51
2022-11-13T06:13:17.568Z,11.53
2022-11-13T06:13:58.511Z,11.57
2022-11-13T06:14:38.542Z,11.52
2022-11-13T06:15:18.560Z,11.57
2022-11-13T06:15:58.550Z,11.54
2022-11-13T06:16:44.499Z,11.54
2022-11-13T06:17:24.538Z,11.53
2022-11-13T06:18:04.492Z,11.54
2022-11-13T06:18:45.576Z,11.57
2022-11-13T06:19:25.484Z,11.56
2022-11-13T06:20:05.599Z,11.55
2022-11-13T06:20:45.515Z,11.57
2022-11-13T06:21:30.859Z,11.53
2022-11-13T06:22:10.519Z,11.56
2022-11-13T06:22:50.537Z,11.55
2022-11-13T06:23:30.492Z,11.58
2022-11-13T06:24:11.554Z,11.61
2022-11-13T06:24:51.492Z,11.58
2022-11-13T06:25:31.516Z,11.59
2022-11-13T06:26:19.508Z,11.68
2022-11-13T06:26:59.539Z,11.68
2022-11-13T06:27:39.483Z,11.58
2022-11-13T06:28:20.544Z,11.65
2022-11-13T06:29:01.494Z,11.68
2022-11-13T06:29:41.575Z,11.67
2022-11-13T06:30:21.471Z,11.63
2022-11-13T06:31:01.512Z,11.68
2022-11-13T06:31:43.497Z,11.67
2022-11-13T06:32:23.523Z,11.70
2022-11-13T06:33:03.497Z,11.71
2022-11-13T06:33:45.578Z,11.70
2022-11-13T06:34:25.484Z,11.68
2022-11-13T06:35:05.523Z,11.74
2022-11-13T06:35:45.481Z,11.72
2022-11-13T06:36:28.711Z,11.76
2022-11-13T06:37:08.492Z,11.74
2022-11-13T06:37:48.501Z,11.67
2022-11-13T06:38:28.687Z,11.78
2022-11-13T06:39:13.712Z,11.78
2022-11-13T06:39:53.497Z,11.75
2022-11-13T06:40:33.537Z,11.76
2022-11-13T06:41:18.477Z,11.78
2022-11-13T06:41:58.513Z,11.61
2022-11-13T06:42:38.494Z,11.79
2022-11-13T06:43:18.514Z,11.72
2022-11-13T06:44:02.787Z,11.72
2022-11-13T06:44:43.500Z,11.80
2022-11-13T06:45:23.474Z,11.77
2022-11-13T06:46:04.893Z,11.70
2022-11-13T06:46:44.467Z,11.68
2022-11-13T06:47:24.544Z,11.66
2022-11-13T06:48:04.505Z,11.68
2022-11-13T06:48:44.616Z,11.66
2022-11-13T06:49:24.459Z,11.62
2022-11-13T06:50:04.507Z,11.62
2022-11-13T06:50:48.280Z,11.65
2022-11-13T06:51:33.906Z,11.62
2022-11-13T06:52:14.472Z,11.57
2022-11-13T06:52:54.527Z,11.55
2022-11-13T06:53:35.487Z,11.41
2022-11-13T06:54:15.502Z,11.55
2022-11-13T06:54:55.467Z,11.53
2022-11-13T06:55:35.496Z,11.54
2022-11-13T06:56:16.625Z,11.51
2022-11-13T06:56:56.512Z,11.49
2022-11-13T06:57:36.440Z,11.48
2022-11-13T06:58:16.490Z,11.56
2022-11-13T06:58:57.503Z,11.57
2022-11-13T06:59:37.533Z,11.53
2022-11-13T07:00:18.460Z,11.53
2022-11-13T07:00:59.520Z,11.56
2022-11-13T07:01:39.551Z,11.57
2022-11-13T07:02:20.488Z,11.56
2022-11-13T07:03:00.440Z,11.58
2022-11-13T07:03:40.545Z,11.61
2022-11-13T07:04:21.460Z,11.62
2022-11-13T07:04:55.181Z,11.64
2022-11-13T07:05:42.463Z,11.67
2022-11-13T07:06:20.114Z,11.67
2022-11-13T07:07:07.501Z,11.73
2022-11-13T07:07:41.161Z,11.62
2022-11-13T07:08:29.793Z,11.72
2022-11-13T07:09:04.233Z,11.69
2022-11-13T07:09:45.464Z,11.62
2022-11-13T07:10:19.473Z,11.61
2022-11-13T07:10:56.638Z,11.69
2022-11-13T07:11:36.431Z,11.68
2022-11-13T07:12:12.519Z,11.59
2022-11-13T07:12:49.405Z,11.68
2022-11-13T07:13:34.448Z,11.72
2022-11-13T07:14:08.467Z,11.68
2022-11-13T07:14:42.124Z,11.71
2022-11-13T07:15:23.474Z,11.75
2022-11-13T07:15:57.493Z,11.78
2022-11-13T07:17:08.087Z,11.79
2022-11-13T07:17:38.535Z,11.82
2022-11-13T07:18:25.747Z,11.77
2022-11-13T07:19:00.495Z,11.81
2022-11-13T07:19:47.474Z,11.83
2022-11-13T07:20:21.552Z,11.70
2022-11-13T07:21:01.477Z,11.90
2022-11-13T07:21:41.511Z,11.90
2022-11-13T07:22:21.430Z,11.94
2022-11-13T07:23:06.505Z,11.90
2022-11-13T07:23:49.440Z,11.93
2022-11-13T07:24:29.493Z,11.93
2022-11-13T07:25:09.439Z,11.89
2022-11-13T07:25:49.538Z,11.92
2022-11-13T07:26:30.450Z,11.93
2022-11-13T07:27:10.478Z,11.88
2022-11-13T07:27:53.442Z,11.93
2022-11-13T07:28:33.547Z,11.86
2022-11-13T07:29:13.428Z,11.93
2022-11-13T07:29:53.479Z,11.90
2022-11-13T07:30:34.426Z,11.90
2022-11-13T07:31:16.571Z,11.91
2022-11-13T07:31:56.456Z,11.96
2022-11-13T07:32:37.095Z,11.94
2022-11-13T07:33:17.508Z,11.98
2022-11-13T07:33:57.603Z,11.92
2022-11-13T07:34:38.426Z,11.96
2022-11-13T07:35:20.515Z,11.96
2022-11-13T07:36:04.423Z,11.90
2022-11-13T07:36:44.596Z,11.98
2022-11-13T07:37:25.431Z,11.86
2022-11-13T07:38:06.492Z,11.80
2022-11-13T07:38:46.429Z,11.89
2022-11-13T07:39:28.469Z,11.80
2022-11-13T07:40:09.466Z,11.81
2022-11-13T07:40:49.484Z,11.77
2022-11-13T07:41:30.447Z,11.80
2022-11-13T07:42:11.619Z,11.85
2022-11-13T07:42:52.433Z,11.87
2022-11-13T07:43:33.468Z,11.92
2022-11-13T07:44:27.262Z,11.91
2022-11-13T07:45:14.553Z,11.98
2022-11-13T07:46:00.433Z,11.91
2022-11-13T07:46:40.458Z,11.94
2022-11-13T07:47:20.416Z,11.95
2022-11-13T07:48:16.468Z,12.00
2022-11-13T07:49:10.411Z,11.93
2022-11-13T07:50:10.748Z,12.05
2022-11-13T07:51:06.455Z,12.06
2022-11-13T07:52:00.446Z,11.98
2022-11-13T07:52:55.425Z,12.07
2022-11-13T07:53:36.445Z,12.08
2022-11-13T07:54:16.493Z,12.09
2022-11-13T07:54:56.392Z,12.11
2022-11-13T07:55:36.693Z,12.07
2022-11-13T07:56:23.003Z,12.10
2022-11-13T07:57:04.527Z,12.12
2022-11-13T07:57:45.414Z,12.11
2022-11-13T07:58:25.551Z,12.10
2022-11-13T07:59:05.431Z,12.14
2022-11-13T07:59:47.504Z,12.14
2022-11-13T08:00:28.471Z,12.18
2022-11-13T08:01:12.486Z,12.19
2022-11-13T08:01:53.387Z,12.21
2022-11-13T08:02:34.437Z,12.23
2022-11-13T08:03:18.398Z,12.20
2022-11-13T08:03:58.478Z,12.22
2022-11-13T08:04:40.437Z,12.20
2022-11-13T08:05:21.452Z,12.23
2022-11-13T08:06:11.402Z,12.22
2022-11-13T08:06:52.549Z,12.24
2022-11-13T08:07:32.396Z,12.20
2022-11-13T08:08:13.464Z,12.23
2022-11-13T08:08:56.411Z,12.24
2022-11-13T08:09:36.414Z,12.20
2022-11-13T08:10:17.417Z,12.20
2022-11-13T08:10:58.515Z,12.22
2022-11-13T08:11:39.387Z,12.27
2022-11-13T08:12:19.447Z,12.29
2022-11-13T08:13:12.396Z,12.23
2022-11-13T08:13:52.507Z,12.29
2022-11-13T08:14:32.394Z,12.27
2022-11-13T08:15:13.784Z,12.22
2022-11-13T08:15:54.366Z,12.19
2022-11-13T08:16:49.395Z,12.17
2022-11-13T08:17:47.696Z,12.00
2022-11-13T08:18:43.392Z,12.11
2022-11-13T08:19:37.384Z,12.06
2022-11-13T08:20:31.381Z,12.15
2022-11-13T08:21:18.392Z,12.21
2022-11-13T08:21:52.478Z,12.23
2022-11-13T08:22:42.379Z,12.22
2022-11-13T08:23:16.404Z,12.20
2022-11-13T08:24:03.399Z,12.21
2022-11-13T08:24:37.430Z,12.24
2022-11-13T08:25:26.380Z,12.31
2022-11-13T08:26:00.441Z,12.25
2022-11-13T08:26:44.389Z,12.29
2022-11-13T08:27:30.250Z,12.28
2022-11-13T08:28:13.300Z,12.26
2022-11-13T08:28:54.476Z,12.18
2022-11-13T08:29:34.355Z,12.13
2022-11-13T08:30:16.617Z,12.19
2022-11-13T08:30:59.371Z,12.18
2022-11-13T08:31:39.425Z,12.18
2022-11-13T08:32:24.388Z,12.13
2022-11-13T08:33:04.499Z,12.15
2022-11-13T08:33:45.384Z,12.19
2022-11-13T08:34:25.424Z,12.14
2022-11-13T08:35:05.350Z,12.16
2022-11-13T08:35:45.422Z,12.13
2022-11-13T08:36:25.617Z,12.24
2022-11-13T08:37:06.406Z,12.21
2022-11-13T08:37:47.403Z,12.15
2022-11-13T08:38:27.857Z,12.13
2022-11-13T08:39:09.380Z,12.14
2022-11-13T08:39:49.410Z,12.21
2022-11-13T08:40:29.380Z,12.18
2022-11-13T08:41:11.983Z,12.12
2022-11-13T08:41:53.350Z,12.13
2022-11-13T08:42:35.468Z,12.22
2022-11-13T08:43:17.397Z,12.23
2022-11-13T08:43:58.408Z,12.14
2022-11-13T08:44:38.372Z,12.21
2022-11-13T08:45:20.443Z,12.19
2022-11-13T08:46:02.692Z,12.18
2022-11-13T08:46:42.398Z,12.28
2022-11-13T08:47:28.278Z,12.29
2022-11-13T08:48:11.417Z,12.25
2022-11-13T08:48:51.353Z,12.27
2022-11-13T08:49:31.455Z,12.27
2022-11-13T08:50:13.369Z,12.24
2022-11-13T08:50:53.404Z,12.22
2022-11-13T08:51:33.359Z,12.28
2022-11-13T08:52:13.396Z,12.28
2022-11-13T08:52:54.370Z,12.25
2022-11-13T08:53:34.459Z,12.32
2022-11-13T08:54:14.368Z,12.32
2022-11-13T08:54:57.501Z,12.30
2022-11-13T08:55:39.339Z,12.29
2022-11-13T08:56:19.962Z,12.27
2022-11-13T08:57:05.658Z,12.23